Time;durP1;ratioP1;P1;durP2;ratioP2;P2;SDS_P1;SDS_P2;PMS_P1;PMS_P2;Temp;Humidity;BMP_temperature;BMP_pressure;BME280_temperature;BME280_humidity;BME280_pressure;Samples;Min_cycle;Max_cycle;Signal;HPM_P1;HPM_P2
2022/10/26 00:00:52;;;;;;;21.40;9.80;;;15.00;99.90;;;;;;5070889;28;20481;-63
2022/10/26 00:03:19;;;;;;;21.33;12.10;;;15.00;99.90;;;;;;5084415;28;20482;-61
2022/10/26 00:05:47;;;;;;;29.20;8.47;;;15.00;99.90;;;;;;5075844;28;20470;-62
2022/10/26 00:08:14;;;;;;;26.47;11.87;;;15.00;99.90;;;;;;5065529;28;20904;-62
2022/10/26 00:10:41;;;;;;;23.10;8.43;;;15.00;99.90;;;;;;5078716;28;20465;-62
2022/10/26 00:13:12;;;;;;;44.53;13.00;;;15.00;99.90;;;;;;5076534;28;20470;-62
2022/10/26 00:15:41;;;;;;;35.47;9.43;;;15.10;99.90;;;;;;5071947;28;20478;-61
2022/10/26 00:18:08;;;;;;;29.90;11.50;;;15.10;99.90;;;;;;5072578;28;20482;-62
2022/10/26 00:20:35;;;;;;;29.10;9.77;;;15.10;99.90;;;;;;5073486;28;20926;-62
2022/10/26 00:23:03;;;;;;;27.97;11.90;;;15.20;99.90;;;;;;5077131;28;20664;-62
2022/10/26 00:25:29;;;;;;;29.87;10.90;;;15.20;99.90;;;;;;5070648;28;20494;-62
2022/10/26 00:27:56;;;;;;;29.10;8.40;;;15.20;99.90;;;;;;5070674;28;20482;-62
2022/10/26 00:30:23;;;;;;;25.30;10.93;;;15.20;99.90;;;;;;5072641;28;21064;-62
2022/10/26 00:32:50;;;;;;;36.80;12.33;;;;;;;;;;5071610;27;20995;-62
2022/10/26 00:35:17;;;;;;;49.10;13.80;;;15.20;99.90;;;;;;5081253;28;20497;-62
2022/10/26 00:37:43;;;;;;;38.10;11.57;;;15.20;99.90;;;;;;5069442;28;20655;-61
2022/10/26 00:40:12;;;;;;;46.80;15.70;;;15.20;99.90;;;;;;5074065;28;20474;-61
2022/10/26 00:42:39;;;;;;;29.50;8.53;;;;;;;;;;5072505;28;20516;-62
2022/10/26 00:45:16;;;;;;;43.57;13.77;;;;;;;;;;5069628;28;20474;-62
2022/10/26 00:47:46;;;;;;;30.80;10.77;;;15.20;99.90;;;;;;5070506;28;20478;-61
2022/10/26 00:50:20;;;;;;;49.03;17.93;;;15.20;99.90;;;;;;5066011;28;20517;-61
2022/10/26 00:52:47;;;;;;;21.23;8.77;;;15.20;99.90;;;;;;5086815;28;20842;-62
2022/10/26 00:55:20;;;;;;;31.03;11.33;;;15.10;99.90;;;;;;5070903;28;20489;-61
2022/10/26 00:57:47;;;;;;;30.60;9.30;;;;;;;;;;5070380;28;20854;-62
2022/10/26 01:00:14;;;;;;;34.40;13.40;;;15.10;99.90;;;;;;5075335;28;20475;-62
2022/10/26 01:02:41;;;;;;;23.87;9.20;;;15.10;99.90;;;;;;5074503;28;20703;-62
2022/10/26 01:05:09;;;;;;;39.37;12.73;;;15.00;99.90;;;;;;5073554;28;20478;-62
2022/10/26 01:07:37;;;;;;;18.53;8.60;;;;;;;;;;5071786;28;20497;-62
2022/10/26 01:10:04;;;;;;;29.80;9.43;;;15.10;99.90;;;;;;5074997;28;20900;-62
2022/10/26 01:12:32;;;;;;;21.93;9.70;;;15.20;99.90;;;;;;5073781;28;20501;-62
2022/10/26 01:14:59;;;;;;;24.80;10.07;;;15.20;99.90;;;;;;5075006;28;20486;-61
2022/10/26 01:17:38;;;;;;;21.33;8.10;;;15.20;99.90;;;;;;5075735;28;20855;-62
2022/10/26 01:20:56;;;;;;;45.10;13.53;;;15.10;99.90;;;;;;5075972;28;20513;-61
2022/10/26 01:23:30;;;;;;;18.20;9.30;;;15.10;99.90;;;;;;5030288;28;20825;-61
2022/10/26 01:26:17;;;;;;;18.60;9.83;;;15.00;99.90;;;;;;5060784;28;20515;-61
2022/10/26 01:29:09;;;;;;;28.90;8.63;;;15.10;99.90;;;;;;5061293;28;20712;-62
2022/10/26 01:31:41;;;;;;;23.37;10.73;;;;;;;;;;5074688;28;20716;-62
2022/10/26 01:34:13;;;;;;;40.67;13.17;;;15.10;99.90;;;;;;5074438;28;20490;-61
2022/10/26 01:36:46;;;;;;;28.63;12.30;;;15.10;99.90;;;;;;5071392;28;20479;-61
2022/10/26 01:39:18;;;;;;;47.20;14.43;;;15.10;99.90;;;;;;5073604;28;20490;-62
2022/10/26 01:41:47;;;;;;;18.80;8.80;;;15.10;99.90;;;;;;5072179;28;20791;-62
2022/10/26 01:44:18;;;;;;;28.57;13.13;;;15.20;99.90;;;;;;5072778;28;20479;-62
2022/10/26 01:46:50;;;;;;;19.10;7.97;;;15.00;99.90;;;;;;5063857;28;20669;-62
2022/10/26 01:49:21;;;;;;;34.97;13.73;;;15.00;99.90;;;;;;5074272;28;20788;-62
2022/10/26 01:51:49;;;;;;;12.50;7.03;;;14.80;99.90;;;;;;5072653;28;20471;-61
2022/10/26 01:54:16;;;;;;;33.63;13.50;;;14.80;99.90;;;;;;5072397;28;20950;-62
2022/10/26 01:56:47;;;;;;;22.10;9.83;;;14.80;99.90;;;;;;5072481;28;20921;-62
2022/10/26 01:59:26;;;;;;;23.17;10.17;;;14.90;99.90;;;;;;5069447;28;20482;-61
2022/10/26 02:02:13;;;;;;;21.13;8.70;;;14.90;99.90;;;;;;5068453;28;20566;-61
2022/10/26 02:04:52;;;;;;;15.17;7.10;;;15.00;99.90;;;;;;5063424;28;20496;-61
2022/10/26 02:07:24;;;;;;;23.50;12.73;;;15.00;99.90;;;;;;5073489;28;20486;-60
2022/10/26 02:10:00;;;;;;;15.73;6.70;;;15.00;99.90;;;;;;5073278;28;20491;-61
2022/10/26 02:12:35;;;;;;;13.83;8.27;;;15.00;99.90;;;;;;5067417;28;20922;-61
2022/10/26 02:15:07;;;;;;;30.10;9.67;;;15.10;99.90;;;;;;5072799;28;20482;-62
2022/10/26 02:17:42;;;;;;;22.00;8.87;;;15.00;99.90;;;;;;5070331;28;20462;-61
2022/10/26 02:20:17;;;;;;;19.23;9.77;;;15.00;99.90;;;;;;5076677;28;20485;-62
2022/10/26 02:22:49;;;;;;;13.00;7.60;;;15.00;99.90;;;;;;5061360;28;20563;-62
2022/10/26 02:25:20;;;;;;;20.37;11.43;;;15.00;99.90;;;;;;5062380;28;20480;-62
2022/10/26 02:27:52;;;;;;;12.40;7.20;;;15.00;99.90;;;;;;5077383;28;20903;-62
2022/10/26 02:30:19;;;;;;;26.37;11.97;;;15.00;99.90;;;;;;5075886;28;20482;-62
2022/10/26 02:32:51;;;;;;;28.77;6.67;;;14.90;99.90;;;;;;5074371;28;20474;-62
2022/10/26 02:35:22;;;;;;;21.73;12.70;;;14.80;99.90;;;;;;5067057;28;20486;-62
2022/10/26 02:37:52;;;;;;;19.03;8.10;;;14.70;99.90;;;;;;5070701;28;20470;-62
2022/10/26 02:40:22;;;;;;;16.70;7.60;;;14.80;99.90;;;;;;5066734;28;20493;-62
2022/10/26 02:42:51;;;;;;;13.03;7.10;;;14.80;99.90;;;;;;5074558;28;20478;-61
2022/10/26 02:45:22;;;;;;;17.90;9.33;;;14.90;99.90;;;;;;5063543;28;20474;-62
2022/10/26 02:47:51;;;;;;;16.77;7.07;;;14.90;99.90;;;;;;5070064;28;20597;-62
2022/10/26 02:50:22;;;;;;;30.33;11.43;;;14.90;99.90;;;;;;5070223;28;20478;-62
2022/10/26 02:52:53;;;;;;;16.03;6.37;;;14.90;99.90;;;;;;5066958;28;20969;-62
2022/10/26 02:55:25;;;;;;;13.50;8.20;;;14.90;99.90;;;;;;5073299;28;20482;-62
2022/10/26 02:57:57;;;;;;;24.73;8.53;;;15.00;99.90;;;;;;5050957;28;20481;-61
2022/10/26 03:00:24;;;;;;;28.27;8.60;;;15.00;99.90;;;;;;5055430;28;20481;-62
2022/10/26 03:02:56;;;;;;;17.33;7.73;;;15.00;99.90;;;;;;5070834;28;20478;-62
2022/10/26 03:05:26;;;;;;;32.53;8.33;;;14.90;99.90;;;;;;5073015;28;20843;-61
2022/10/26 03:07:53;;;;;;;19.13;8.27;;;14.90;99.90;;;;;;5061977;28;20723;-61
2022/10/26 03:10:20;;;;;;;22.57;11.20;;;14.90;99.90;;;;;;5073585;28;20805;-61
2022/10/26 03:12:47;;;;;;;18.63;6.40;;;14.80;99.90;;;;;;5070984;28;20483;-62
2022/10/26 03:15:14;;;;;;;39.37;13.20;;;14.80;99.90;;;;;;5072889;28;20482;-61
2022/10/26 03:17:41;;;;;;;25.07;9.10;;;14.90;99.90;;;;;;5070704;28;20478;-62
2022/10/26 03:20:10;;;;;;;22.17;9.90;;;14.90;99.90;;;;;;5070319;28;20489;-61
2022/10/26 03:22:37;;;;;;;12.00;7.17;;;14.80;99.90;;;;;;5069008;28;20482;-61
2022/10/26 03:25:05;;;;;;;17.37;9.00;;;14.60;99.90;;;;;;5069036;28;20495;-61
2022/10/26 03:27:31;;;;;;;14.77;7.50;;;14.50;99.90;;;;;;5080489;28;20733;-61
2022/10/26 03:29:58;;;;;;;14.03;8.37;;;14.60;99.90;;;;;;5072929;28;20852;-62
2022/10/26 03:32:25;;;;;;;24.47;7.67;;;14.60;99.90;;;;;;5067399;28;20481;-62
2022/10/26 03:34:51;;;;;;;19.87;7.63;;;14.70;99.90;;;;;;5064185;28;20474;-62
2022/10/26 03:37:19;;;;;;;41.20;10.80;;;14.70;99.90;;;;;;5064072;28;20493;-61
2022/10/26 03:39:46;;;;;;;11.87;7.70;;;14.80;99.90;;;;;;5072730;28;20479;-62
2022/10/26 03:42:13;;;;;;;25.97;12.03;;;14.70;99.90;;;;;;5071444;28;20479;-62
2022/10/26 03:44:40;;;;;;;14.73;7.80;;;14.70;99.90;;;;;;5064425;28;20465;-62
2022/10/26 03:47:06;;;;;;;40.87;12.07;;;14.80;99.90;;;;;;5074884;28;20810;-61
2022/10/26 03:49:33;;;;;;;20.50;8.80;;;14.80;99.90;;;;;;5073200;28;21044;-61
2022/10/26 03:52:00;;;;;;;13.07;7.37;;;14.70;99.90;;;;;;5072316;28;20481;-62
2022/10/26 03:54:28;;;;;;;19.90;9.00;;;14.70;99.90;;;;;;5067063;28;20501;-61
2022/10/26 03:56:54;;;;;;;21.33;7.43;;;14.80;99.90;;;;;;5067876;28;20812;-62
2022/10/26 03:59:21;;;;;;;23.73;9.73;;;14.80;99.90;;;;;;5069817;28;20481;-63
2022/10/26 04:01:48;;;;;;;14.37;7.47;;;14.80;99.90;;;;;;5073175;28;20831;-61
2022/10/26 04:04:15;;;;;;;47.10;13.07;;;14.80;99.90;;;;;;5069963;28;20475;-62
2022/10/26 04:06:42;;;;;;;30.67;11.00;;;;;;;;;;5070321;28;20471;-62
2022/10/26 04:09:08;;;;;;;23.83;8.67;;;14.70;99.90;;;;;;5073125;28;21104;-62
2022/10/26 04:11:37;;;;;;;23.17;7.47;;;14.60;99.90;;;;;;5072919;28;20482;-63
2022/10/26 04:14:03;;;;;;;29.43;10.00;;;14.70;99.90;;;;;;5070907;28;20820;-61
2022/10/26 04:16:30;;;;;;;32.20;11.77;;;14.70;99.90;;;;;;5070841;28;20494;-62
2022/10/26 04:18:57;;;;;;;21.20;7.60;;;14.70;99.90;;;;;;5072685;28;20489;-62
2022/10/26 04:21:24;;;;;;;19.30;9.43;;;;;;;;;;5071243;28;20632;-62
2022/10/26 04:23:50;;;;;;;17.43;8.30;;;14.50;99.90;;;;;;5084983;28;20483;-61
2022/10/26 04:26:17;;;;;;;38.23;10.13;;;14.50;99.90;;;;;;5058529;28;20486;-62
2022/10/26 04:28:45;;;;;;;17.87;7.53;;;14.40;99.90;;;;;;5079542;28;21708;-61
2022/10/26 04:31:12;;;;;;;30.33;11.17;;;14.30;99.90;;;;;;5074196;28;20516;-61
2022/10/26 04:33:38;;;;;;;16.90;6.73;;;14.30;99.90;;;;;;5082338;28;20895;-62
2022/10/26 04:36:06;;;;;;;32.33;10.80;;;14.40;99.90;;;;;;5074643;28;20485;-62
2022/10/26 04:38:33;;;;;;;49.30;16.80;;;14.50;99.90;;;;;;5069641;28;20478;-63
2022/10/26 04:40:59;;;;;;;22.53;7.30;;;14.50;99.90;;;;;;5076449;28;20846;-62
2022/10/26 04:43:26;;;;;;;28.47;9.80;;;14.60;99.90;;;;;;5074174;28;20478;-62
2022/10/26 04:45:57;;;;;;;62.03;13.30;;;14.50;99.90;;;;;;5078262;28;20497;-63
2022/10/26 04:48:24;;;;;;;35.03;8.53;;;14.60;99.90;;;;;;5072807;28;20489;-62
2022/10/26 04:50:51;;;;;;;35.27;8.37;;;14.70;99.90;;;;;;5088339;28;20775;-63
2022/10/26 04:53:18;;;;;;;98.07;17.43;;;;;;;;;;5073824;28;20474;-62
2022/10/26 04:55:44;;;;;;;31.60;7.90;;;14.80;99.90;;;;;;5074517;28;20939;-62
2022/10/26 04:58:11;;;;;;;39.73;12.03;;;14.80;99.90;;;;;;5070700;28;20477;-62
2022/10/26 05:00:38;;;;;;;14.70;6.83;;;14.90;99.90;;;;;;5068760;28;20738;-62
2022/10/26 05:03:07;;;;;;;18.00;7.80;;;14.90;99.90;;;;;;5075210;28;20469;-62
2022/10/26 05:05:36;;;;;;;13.80;8.10;;;14.90;99.90;;;;;;5076196;28;20829;-63
2022/10/26 05:08:04;;;;;;;19.13;6.13;;;14.80;99.90;;;;;;5066695;28;20469;-62
2022/10/26 05:10:30;;;;;;;13.97;7.97;;;14.80;99.90;;;;;;5080903;28;20513;-62
2022/10/26 05:12:59;;;;;;;12.83;7.83;;;14.80;99.90;;;;;;5076739;28;20848;-62
2022/10/26 05:15:26;;;;;;;9.73;6.10;;;14.80;99.90;;;;;;5079906;28;20489;-62
2022/10/26 05:17:57;;;;;;;11.97;7.53;;;14.90;99.90;;;;;;5073094;28;20489;-61
2022/10/26 05:20:28;;;;;;;14.13;8.03;;;15.00;99.90;;;;;;5073666;28;20479;-62
2022/10/26 05:22:55;;;;;;;30.07;7.90;;;15.10;99.90;;;;;;5076621;28;21117;-63
2022/10/26 05:25:22;;;;;;;19.17;8.90;;;15.20;99.90;;;;;;5075663;28;20486;-63
2022/10/26 05:27:49;;;;;;;16.30;6.90;;;15.20;99.90;;;;;;5067581;28;20486;-62
2022/10/26 05:30:16;;;;;;;27.37;11.50;;;15.20;99.90;;;;;;5074907;28;21076;-62
2022/10/26 05:32:42;;;;;;;13.07;7.70;;;15.30;99.90;;;;;;5072540;28;20493;-62
2022/10/26 05:35:10;;;;;;;31.30;12.47;;;;;;;;;;5069360;28;20518;-63
2022/10/26 05:37:38;;;;;;;25.03;7.83;;;15.30;99.90;;;;;;5070721;28;20500;-62
2022/10/26 05:40:05;;;;;;;20.13;8.97;;;15.30;99.90;;;;;;5064097;28;21033;-62
2022/10/26 05:42:32;;;;;;;18.73;8.80;;;15.30;99.90;;;;;;5080070;28;20481;-63
2022/10/26 05:44:59;;;;;;;25.83;8.67;;;15.30;99.90;;;;;;5074840;28;20485;-62
2022/10/26 05:47:25;;;;;;;32.97;11.27;;;15.50;99.90;;;;;;5063475;28;20478;-62
2022/10/26 05:49:52;;;;;;;43.30;11.50;;;15.60;99.90;;;;;;5075366;28;20481;-63
2022/10/26 05:52:19;;;;;;;49.03;11.83;;;15.60;99.90;;;;;;5074748;28;20774;-62
2022/10/26 05:54:47;;;;;;;19.77;7.07;;;15.50;99.90;;;;;;5060996;28;20474;-63
2022/10/26 05:57:14;;;;;;;44.77;12.70;;;15.60;99.90;;;;;;5077631;28;20482;-63
2022/10/26 05:59:42;;;;;;;38.60;9.53;;;;;;;;;;5071863;28;20478;-62
2022/10/26 06:02:12;;;;;;;50.43;13.90;;;;;;;;;;5064025;28;20780;-63
2022/10/26 06:04:46;;;;;;;39.73;9.30;;;15.60;99.90;;;;;;5081434;28;20483;-62
2022/10/26 06:07:14;;;;;;;85.90;16.93;;;;;;;;;;5070170;28;20600;-62
2022/10/26 06:09:42;;;;;;;47.00;11.50;;;15.70;99.90;;;;;;5074963;28;20582;-62
2022/10/26 06:12:12;;;;;;;64.13;15.90;;;;;;;;;;5071285;28;20521;-63
2022/10/26 06:14:39;;;;;;;37.30;10.20;;;;;;;;;;5069408;28;20486;-62
2022/10/26 06:17:18;;;;;;;34.53;9.53;;;15.70;99.90;;;;;;5070232;28;21482;-62
2022/10/26 06:19:57;;;;;;;32.33;9.50;;;15.70;99.90;;;;;;5071254;28;20466;-62
2022/10/26 06:22:37;;;;;;;23.30;8.83;;;15.60;99.90;;;;;;5073326;28;20477;-63
2022/10/26 06:25:15;;;;;;;42.93;10.10;;;15.60;99.90;;;;;;5067690;28;20481;-62
2022/10/26 06:27:52;;;;;;;24.43;9.40;;;15.60;99.90;;;;;;5055237;28;20489;-62
2022/10/26 06:30:22;;;;;;;38.67;13.77;;;15.60;99.90;;;;;;5062462;28;20482;-62
2022/10/26 06:32:49;;;;;;;31.43;9.90;;;15.50;99.90;;;;;;5064509;28;20495;-63
2022/10/26 06:35:27;;;;;;;43.80;12.20;;;15.60;99.90;;;;;;5073984;28;20474;-62
2022/10/26 06:37:56;;;;;;;27.93;9.23;;;15.70;99.90;;;;;;5066385;28;20987;-62
2022/10/26 06:40:24;;;;;;;28.60;8.47;;;15.70;99.90;;;;;;5073923;28;20503;-61
2022/10/26 06:42:53;;;;;;;29.50;8.20;;;15.70;99.90;;;;;;5069831;28;20557;-62
2022/10/26 06:45:20;;;;;;;27.20;9.43;;;15.80;99.90;;;;;;5074302;28;20483;-62
2022/10/26 06:47:54;;;;;;;21.77;9.80;;;15.60;99.90;;;;;;5057926;28;20606;-62
2022/10/26 06:50:31;;;;;;;39.07;11.03;;;15.50;99.90;;;;;;5077235;28;20478;-63
2022/10/26 06:53:14;;;;;;;32.50;10.07;;;15.30;99.90;;;;;;5058735;28;20508;-62
2022/10/26 06:55:45;;;;;;;46.77;11.67;;;15.30;99.90;;;;;;5056995;28;20505;-62
2022/10/26 06:58:16;;;;;;;41.30;13.10;;;15.30;99.90;;;;;;5053762;28;20475;-62
2022/10/26 07:00:44;;;;;;;25.37;8.13;;;15.30;99.90;;;;;;5056901;28;20470;-62
2022/10/26 07:03:11;;;;;;;39.23;13.30;;;;;;;;;;5070018;28;20498;-62
2022/10/26 07:05:38;;;;;;;30.53;9.20;;;15.50;99.90;;;;;;5073716;28;20474;-63
2022/10/26 07:08:05;;;;;;;38.90;9.60;;;14.40;99.90;;;;;;5070795;28;20719;-62
2022/10/26 07:10:33;;;;;;;21.23;8.30;;;15.80;99.90;;;;;;5069294;28;20496;-63
2022/10/26 07:13:01;;;;;;;31.27;8.73;;;;;;;;;;5077797;28;21094;-62
2022/10/26 07:15:29;;;;;;;19.90;9.03;;;16.10;99.90;;;;;;5068798;28;20509;-62
2022/10/26 07:17:56;;;;;;;26.70;9.97;;;16.00;99.90;;;;;;5070994;28;20809;-62
2022/10/26 07:20:23;;;;;;;28.47;10.47;;;16.00;99.90;;;;;;5074503;28;20506;-61
2022/10/26 07:22:53;;;;;;;19.43;7.43;;;15.90;99.90;;;;;;5074865;28;20872;-62
2022/10/26 07:25:21;;;;;;;27.07;11.10;;;15.80;99.90;;;;;;5071057;28;20483;-62
2022/10/26 07:27:48;;;;;;;20.83;9.53;;;;;;;;;;5067214;28;20473;-62
2022/10/26 07:30:15;;;;;;;38.23;13.70;;;15.70;99.90;;;;;;5069437;28;21033;-62
2022/10/26 07:32:43;;;;;;;36.37;11.03;;;15.70;99.90;;;;;;5054158;28;20482;-63
2022/10/26 07:35:10;;;;;;;50.07;14.17;;;15.60;99.90;;;;;;5069008;28;20474;-62
2022/10/26 07:37:37;;;;;;;60.03;13.80;;;;;;;;;;5066891;28;20473;-63
2022/10/26 07:40:05;;;;;;;37.93;10.53;;;15.80;99.90;;;;;;5071161;28;20540;-62
2022/10/26 07:42:32;;;;;;;38.40;9.37;;;15.90;99.90;;;;;;5061221;28;20478;-61
2022/10/26 07:44:58;;;;;;;54.03;11.23;;;15.90;99.90;;;;;;5066223;28;20831;-62
2022/10/26 07:47:25;;;;;;;80.83;15.50;;;16.10;99.90;;;;;;5062701;28;21774;-63
2022/10/26 07:49:53;;;;;;;39.73;9.80;;;16.10;99.90;;;;;;5073015;28;20558;-63
2022/10/26 07:52:20;;;;;;;30.07;11.33;;;16.20;99.90;;;;;;5068613;28;20707;-61
2022/10/26 07:54:47;;;;;;;25.33;7.93;;;16.30;99.90;;;;;;5061354;28;20502;-62
2022/10/26 07:57:17;;;;;;;33.77;12.73;;;16.50;99.90;;;;;;5065302;28;20982;-62
2022/10/26 07:59:43;;;;;;;33.87;9.00;;;16.60;99.90;;;;;;5068180;28;20485;-63
2022/10/26 08:02:10;;;;;;;69.00;15.93;;;16.80;99.90;;;;;;5076507;28;20500;-62
2022/10/26 08:04:37;;;;;;;48.73;10.67;;;17.00;99.90;;;;;;5071706;28;20849;-63
2022/10/26 08:07:05;;;;;;;46.67;10.87;;;;;;;;;;5067797;28;20513;-63
2022/10/26 08:09:32;;;;;;;31.70;9.13;;;17.80;99.90;;;;;;5074858;28;20478;-63
2022/10/26 08:11:59;;;;;;;33.00;7.67;;;;;;;;;;5073341;28;20466;-62
2022/10/26 08:14:26;;;;;;;42.00;10.77;;;18.20;99.90;;;;;;5069038;28;20599;-62
2022/10/26 08:16:53;;;;;;;48.07;11.50;;;;;;;;;;5070367;28;20886;-62
2022/10/26 08:19:19;;;;;;;61.13;11.70;;;18.20;99.90;;;;;;5070550;28;20782;-62
2022/10/26 08:21:46;;;;;;;28.50;8.47;;;18.10;99.90;;;;;;5073959;28;20910;-63
2022/10/26 08:24:14;;;;;;;54.97;14.90;;;18.20;99.90;;;;;;5073490;28;20598;-62
2022/10/26 08:26:42;;;;;;;43.63;9.67;;;;;;;;;;5061113;28;20466;-64
2022/10/26 08:29:08;;;;;;;43.03;11.60;;;18.20;99.90;;;;;;5073843;28;20627;-62
2022/10/26 08:31:36;;;;;;;25.17;9.30;;;;;;;;;;5072479;28;20485;-63
2022/10/26 08:34:03;;;;;;;32.93;8.40;;;17.90;99.90;;;;;;5072426;28;20474;-62
2022/10/26 08:36:30;;;;;;;34.70;13.00;;;18.00;99.90;;;;;;5070476;28;20675;-62
2022/10/26 08:38:56;;;;;;;21.73;7.47;;;17.90;99.90;;;;;;5073625;28;20470;-62
2022/10/26 08:41:34;;;;;;;31.33;8.00;;;17.90;99.90;;;;;;5069123;28;20994;-61
2022/10/26 08:44:08;;;;;;;27.30;8.70;;;16.40;99.90;;;;;;5073821;28;20474;-63
2022/10/26 08:46:39;;;;;;;64.20;13.20;;;18.00;99.90;;;;;;5072723;28;21014;-63
2022/10/26 08:49:18;;;;;;;39.97;12.63;;;17.90;99.90;;;;;;5066650;28;20474;-62
2022/10/26 08:51:45;;;;;;;36.37;10.00;;;;;;;;;;5071849;28;20483;-62
2022/10/26 08:54:17;;;;;;;47.93;11.23;;;18.00;99.90;;;;;;5072645;28;20466;-63
2022/10/26 08:56:47;;;;;;;34.50;10.50;;;18.10;99.90;;;;;;5069612;28;20475;-62
2022/10/26 08:59:19;;;;;;;51.53;11.40;;;;;;;;;;5064970;28;20688;-63
2022/10/26 09:01:46;;;;;;;36.40;9.80;;;18.20;99.90;;;;;;5070012;28;20549;-63
2022/10/26 09:04:13;;;;;;;63.97;14.67;;;18.30;99.90;;;;;;5067258;28;20487;-64
2022/10/26 09:06:46;;;;;;;23.03;7.40;;;;;;;;;;5075222;28;21591;-62
2022/10/26 09:09:17;;;;;;;69.13;14.60;;;18.40;99.90;;;;;;5066572;28;20492;-62
2022/10/26 09:11:55;;;;;;;44.80;10.30;;;18.40;99.90;;;;;;5061777;28;21092;-62
2022/10/26 09:14:32;;;;;;;35.03;10.13;;;18.50;99.90;;;;;;5069675;28;20440;-62
2022/10/26 09:17:07;;;;;;;59.70;9.93;;;18.60;99.90;;;;;;5067804;28;20518;-62
2022/10/26 09:19:54;;;;;;;24.53;7.90;;;18.60;99.90;;;;;;5055470;28;20473;-62
2022/10/26 09:22:26;;;;;;;29.40;8.60;;;18.80;99.90;;;;;;5074428;28;20479;-62
2022/10/26 09:24:55;;;;;;;29.63;8.83;;;;;;;;;;5068726;28;20495;-62
2022/10/26 09:27:26;;;;;;;42.83;9.50;;;;;;;;;;5068837;28;21112;-63
2022/10/26 09:29:53;;;;;;;15.43;5.80;;;18.80;99.90;;;;;;5073220;28;20490;-62
2022/10/26 09:32:25;;;;;;;21.40;9.03;;;18.80;99.90;;;;;;5075615;28;21033;-62
2022/10/26 09:34:53;;;;;;;22.60;6.40;;;;;;;;;;5075912;28;20483;-62
2022/10/26 09:37:25;;;;;;;24.23;9.63;;;18.60;99.90;;;;;;5073226;28;20479;-62
2022/10/26 09:39:56;;;;;;;29.13;7.60;;;;;;;;;;5074823;28;20564;-62
2022/10/26 09:42:28;;;;;;;24.03;8.80;;;;;;;;;;5074045;28;20457;-62
2022/10/26 09:44:59;;;;;;;30.40;7.40;;;18.50;99.90;;;;;;5075004;28;20975;-62
2022/10/26 09:47:35;;;;;;;24.27;8.63;;;;;;;;;;5068272;28;20517;-62
2022/10/26 09:50:06;;;;;;;38.43;7.70;;;;;;;;;;5077461;28;20478;-62
2022/10/26 09:52:33;;;;;;;45.20;9.73;;;18.60;99.90;;;;;;5070271;28;20455;-62
2022/10/26 09:55:00;;;;;;;38.97;8.97;;;18.50;99.90;;;;;;5073190;28;20477;-62
2022/10/26 09:57:29;;;;;;;48.33;10.40;;;18.50;99.90;;;;;;5067087;28;20513;-63
2022/10/26 09:59:57;;;;;;;47.23;10.10;;;18.60;99.90;;;;;;5068051;28;20449;-63
2022/10/26 10:02:38;;;;;;;49.40;10.30;;;18.60;99.90;;;;;;5069295;28;20598;-62
2022/10/26 10:05:21;;;;;;;37.07;10.83;;;18.70;99.90;;;;;;5072763;28;20466;-62
2022/10/26 10:07:48;;;;;;;30.07;8.50;;;18.80;99.90;;;;;;5066181;28;20509;-63
2022/10/26 10:10:16;;;;;;;64.73;12.10;;;;;;;;;;5071562;28;20989;-63
2022/10/26 10:12:45;;;;;;;52.73;9.10;;;18.90;99.90;;;;;;5071355;28;20510;-64
2022/10/26 10:15:19;;;;;;;57.53;11.30;;;19.00;99.90;;;;;;5064059;28;20758;-62
2022/10/26 10:17:50;;;;;;;36.30;7.70;;;;;;;;;;5064310;28;20986;-63
2022/10/26 10:20:20;;;;;;;53.03;13.27;;;18.90;99.90;;;;;;5071629;28;20473;-62
2022/10/26 10:22:55;;;;;;;20.07;7.90;;;18.90;99.90;;;;;;5068207;28;20837;-63
2022/10/26 10:25:33;;;;;;;32.37;8.97;;;19.00;99.90;;;;;;5049824;28;20448;-63
2022/10/26 10:28:02;;;;;;;21.97;6.10;;;19.00;99.90;;;;;;5068439;28;20462;-63
2022/10/26 10:30:31;;;;;;;34.80;9.33;;;;;;;;;;5069411;28;21034;-64
2022/10/26 10:33:05;;;;;;;28.57;9.20;;;19.20;99.90;;;;;;5065488;28;20564;-64
2022/10/26 10:35:32;;;;;;;23.47;5.83;;;;;;;;;;5070010;28;20785;-63
2022/10/26 10:37:59;;;;;;;29.40;7.10;;;;;;;;;;5060151;28;20841;-64
2022/10/26 10:40:30;;;;;;;22.00;6.70;;;19.40;99.90;;;;;;5063883;28;20491;-63
2022/10/26 10:43:06;;;;;;;18.37;6.60;;;19.60;99.90;;;;;;5074183;28;20802;-63
2022/10/26 10:45:33;;;;;;;18.37;8.37;;;;;;;;;;5070053;28;20675;-63
2022/10/26 10:48:02;;;;;;;30.10;8.60;;;;;;;;;;5067538;28;20445;-63
2022/10/26 10:50:30;;;;;;;18.70;6.03;;;;;;;;;;5068832;28;20485;-63
2022/10/26 10:53:12;;;;;;;31.90;9.07;;;20.00;99.90;;;;;;5070252;28;20470;-63
2022/10/26 10:55:41;;;;;;;24.63;7.73;;;20.20;99.90;;;;;;5065104;28;20453;-63
2022/10/26 10:58:18;;;;;;;29.70;8.53;;;22.60;99.90;;;;;;5065342;28;20484;-63
2022/10/26 11:00:48;;;;;;;25.17;8.17;;;20.30;99.90;;;;;;5074064;28;20457;-64
2022/10/26 11:03:39;;;;;;;42.43;10.10;;;20.40;99.90;;;;;;5067181;28;20491;-64
2022/10/26 11:06:13;;;;;;;44.10;8.97;;;20.60;99.90;;;;;;5067510;28;20966;-64
2022/10/26 11:08:46;;;;;;;55.87;11.27;;;20.70;99.90;;;;;;5072112;28;21048;-64
2022/10/26 11:11:14;;;;;;;53.83;12.20;;;;;;;;;;5068787;28;20485;-64
2022/10/26 11:13:50;;;;;;;35.40;7.00;;;20.70;99.90;;;;;;5062580;28;20490;-64
2022/10/26 11:16:22;;;;;;;49.47;12.27;;;20.70;99.90;;;;;;5069251;28;20863;-65
2022/10/26 11:18:53;;;;;;;39.67;5.30;;;20.80;99.90;;;;;;5066631;28;21005;-63
2022/10/26 11:21:25;;;;;;;56.77;12.50;;;21.10;99.90;;;;;;5050045;28;20847;-64
2022/10/26 11:24:00;;;;;;;24.23;6.77;;;21.20;99.90;;;;;;5070593;28;20654;-64
2022/10/26 11:26:33;;;;;;;32.57;13.50;;;21.40;99.90;;;;;;5064993;28;20509;-64
2022/10/26 11:29:05;;;;;;;27.53;5.43;;;21.60;99.90;;;;;;5065202;28;20467;-63
2022/10/26 11:31:38;;;;;;;21.80;4.90;;;21.70;99.90;;;;;;5071754;28;20487;-64
2022/10/26 11:34:11;;;;;;;21.30;6.43;;;;;;;;;;5061468;28;20441;-65
2022/10/26 11:36:40;;;;;;;27.67;8.07;;;;;;;;;;5045578;28;20481;-64
2022/10/26 11:39:19;;;;;;;30.33;9.10;;;21.50;99.90;;;;;;5068351;28;20489;-64
2022/10/26 11:41:48;;;;;;;15.50;4.80;;;;;;;;;;5051085;28;20808;-64
2022/10/26 11:44:20;;;;;;;19.53;6.17;;;;;;;;;;5064956;28;20898;-64
2022/10/26 11:46:51;;;;;;;20.07;4.90;;;;;;;;;;5074746;28;21033;-64
2022/10/26 11:49:23;;;;;;;17.37;4.90;;;;;;;;;;5063025;28;20501;-64
2022/10/26 11:51:53;;;;;;;23.37;6.23;;;;;;;;;;5066770;28;20486;-64
2022/10/26 11:54:24;;;;;;;35.03;10.70;;;22.10;99.90;;;;;;5071968;28;20751;-64
2022/10/26 11:56:53;;;;;;;13.10;4.30;;;22.00;99.90;;;;;;5073261;28;20482;-65
2022/10/26 11:59:24;;;;;;;36.23;12.57;;;22.00;99.90;;;;;;5068724;28;20479;-65
2022/10/26 12:01:53;;;;;;;23.37;5.00;;;;;;;;;;5076718;28;20485;-65
2022/10/26 12:04:22;;;;;;;31.30;9.47;;;22.20;99.90;;;;;;5075124;28;20952;-64
2022/10/26 12:06:50;;;;;;;20.67;5.70;;;;;;;;;;5073199;28;20479;-64
2022/10/26 12:09:21;;;;;;;38.43;7.93;;;22.40;99.90;;;;;;5072505;28;20481;-64
2022/10/26 12:11:55;;;;;;;15.03;4.40;;;22.60;99.90;;;;;;5063182;28;20509;-64
2022/10/26 12:14:25;;;;;;;28.03;6.53;;;;;;;;;;5062069;28;20445;-64
2022/10/26 12:17:01;;;;;;;10.90;3.27;;;22.90;99.50;;;;;;5081001;28;20443;-65
2022/10/26 12:19:32;;;;;;;18.73;6.07;;;24.80;99.90;;;;;;5070580;28;20460;-63
2022/10/26 12:22:00;;;;;;;32.13;5.27;;;23.00;99.40;;;;;;5069106;28;20729;-64
2022/10/26 12:24:29;;;;;;;20.43;5.03;;;23.00;99.70;;;;;;5061487;28;20482;-65
2022/10/26 12:26:57;;;;;;;22.27;5.27;;;22.90;99.00;;;;;;5069792;28;20542;-64
2022/10/26 12:29:42;;;;;;;9.67;3.27;;;22.80;99.10;;;;;;5079366;28;20453;-64
2022/10/26 12:32:28;;;;;;;16.70;2.80;;;;;;;;;;5065265;28;20449;-64
2022/10/26 12:35:04;;;;;;;22.53;4.67;;;23.10;99.00;;;;;;5066370;28;20478;-64
2022/10/26 12:37:34;;;;;;;19.10;5.87;;;23.20;99.00;;;;;;5063297;28;20481;-64
2022/10/26 12:40:39;;;;;;;17.50;3.63;;;23.30;98.60;;;;;;5065474;28;20495;-65
2022/10/26 12:43:38;;;;;;;12.43;3.67;;;23.20;98.80;;;;;;5054882;28;20483;-65
2022/10/26 12:46:41;;;;;;;14.97;3.70;;;23.00;99.30;;;;;;5064345;28;20472;-64
2022/10/26 12:49:55;;;;;;;14.77;3.30;;;23.00;99.00;;;;;;5069756;28;20710;-64
2022/10/26 12:52:31;;;;;;;22.63;5.27;;;23.10;99.00;;;;;;5068103;28;20595;-64
2022/10/26 12:55:36;;;;;;;15.70;3.37;;;23.00;98.90;;;;;;5064445;28;20470;-64
2022/10/26 12:58:39;;;;;;;12.03;2.73;;;23.10;99.20;;;;;;5043140;28;20451;-65
2022/10/26 13:01:33;;;;;;;12.10;2.30;;;23.10;99.00;;;;;;5028974;28;20491;-64
2022/10/26 13:04:14;;;;;;;21.73;3.30;;;23.00;98.30;;;;;;5059432;28;20462;-65
2022/10/26 13:06:54;;;;;;;8.40;1.97;;;23.10;98.90;;;;;;5064858;28;20727;-64
2022/10/26 13:09:27;;;;;;;10.00;2.40;;;23.00;98.80;;;;;;5051101;28;21031;-64